Time,TemperatureF,DewpointF,PressureIn,WindDirection,WindDirectionDegrees,WindSpeedMPH,WindSpeedGustMPH,Humidity,HourlyPrecipIn,Conditions,Clouds,dailyrainin,SoftwareType,DateUTC
2013-01-01 00:00:00,39.3,17.5,29.89,NE,55,0.0,0.0,41,0.00,,,0.00,Wunderground v.1.15,2013-01-01 05:00:00,
2013-01-01 00:10:00,39.1,17.9,29.88,NE,55,0.0,0.0,42,0.00,,,0.00,Wunderground v.1.15,2013-01-01 05:10:00,
2013-01-01 00:15:00,38.9,17.7,29.87,NE,55,0.0,0.0,42,0.00,,,0.00,Wunderground v.1.15,2013-01-01 05:15:00,
2013-01-01 00:20:00,38.9,18.3,29.87,NE,55,0.0,0.0,43,0.00,,,0.00,Wunderground v.1.15,2013-01-01 05:20:00,
2013-01-01 00:30:00,38.8,17.6,29.86,NE,51,0.0,0.0,42,0.00,,,0.00,Wunderground v.1.15,2013-01-01 05:30:00,
2013-01-01 00:35:00,38.8,17.6,29.86,NE,51,0.0,0.0,42,0.00,,,0.00,Wunderground v.1.15,2013-01-01 05:35:00,
2013-01-01 00:40:00,38.8,17.1,29.85,NE,51,0.0,0.0,41,0.00,,,0.00,Wunderground v.1.15,2013-01-01 05:40:00,
2013-01-01 00:50:00,39.5,16.6,29.84,West,267,0.0,1.0,39,0.00,,,0.00,Wunderground v.1.15,2013-01-01 05:50:00,
2013-01-01 01:00:00,39.6,15.4,29.83,West,260,0.0,0.0,37,0.00,,,0.00,Wunderground v.1.15,2013-01-01 06:00:00,
2013-01-01 01:10:00,39.5,16.0,29.82,ESE,114,0.0,0.0,38,0.00,,,0.00,Wunderground v.1.15,2013-01-01 06:10:00,
2013-01-01 01:20:00,39.3,17.0,29.84,SE,142,0.0,1.0,40,0.00,,,0.00,Wunderground v.1.15,2013-01-01 06:20:00,
2013-01-01 01:30:00,40.5,16.9,29.83,NNE,24,1.0,1.0,38,0.00,,,0.00,Wunderground v.1.15,2013-01-01 06:30:00,
2013-01-01 01:40:00,40.8,16.5,29.82,West,267,1.0,1.0,37,0.00,,,0.00,Wunderground v.1.15,2013-01-01 06:40:00,
2013-01-01 01:50:00,42.2,18.4,29.81,WNW,289,3.0,3.0,38,0.00,,,0.00,Wunderground v.1.15,2013-01-01 06:50:00,
2013-01-01 02:00:00,42.6,21.6,29.80,West,262,2.0,2.0,43,0.00,,,0.00,Wunderground v.1.15,2013-01-01 07:00:00,
2013-01-01 02:05:00,43.1,22.1,29.82,West,266,2.0,2.0,43,0.00,,,0.00,Wunderground v.1.15,2013-01-01 07:05:00,
2013-01-01 02:15:00,43.2,22.2,29.82,West,265,2.0,2.0,43,0.00,,,0.00,Wunderground v.1.15,2013-01-01 07:15:00,
2013-01-01 02:20:00,43.1,22.1,29.82,WNW,284,2.0,2.0,43,0.00,,,0.00,Wunderground v.1.15,2013-01-01 07:20:00,
2013-01-01 02:30:00,42.6,21.1,29.82,WNW,288,2.0,2.0,42,0.00,,,0.00,Wunderground v.1.15,2013-01-01 07:30:00,
2013-01-01 02:40:00,42.8,21.3,29.83,West,277,1.0,2.0,42,0.00,,,0.00,Wunderground v.1.15,2013-01-01 07:40:00,
2013-01-01 02:50:00,42.8,20.1,29.83,West,268,1.0,3.0,40,0.00,,,0.00,Wunderground v.1.15,2013-01-01 07:50:00,
2013-01-01 03:00:00,43.1,20.4,29.83,West,266,2.0,3.0,40,0.00,,,0.00,Wunderground v.1.15,2013-01-01 08:00:00,
2013-01-01 03:10:00,43.1,22.1,29.83,West,262,1.0,1.0,43,0.00,,,0.00,Wunderground v.1.15,2013-01-01 08:10:00,
2013-01-01 03:20:00,43.1,22.1,29.83,WNW,291,1.0,2.0,43,0.00,,,0.00,Wunderground v.1.15,2013-01-01 08:20:00,
2013-01-01 03:30:00,43.1,22.1,29.82,NW,322,1.0,2.0,43,0.00,,,0.00,Wunderground v.1.15,2013-01-01 08:30:00,
2013-01-01 03:40:00,43.1,21.5,29.82,West,269,1.0,1.0,42,0.00,,,0.00,Wunderground v.1.15,2013-01-01 08:40:00,
2013-01-01 03:50:00,42.8,23.9,29.82,West,269,1.0,1.0,47,0.00,,,0.00,Wunderground v.1.15,2013-01-01 08:50:00,
2013-01-01 04:00:00,42.2,23.9,29.82,NNE,22,1.0,1.0,48,0.00,,,0.00,Wunderground v.1.15,2013-01-01 09:00:00,
2013-01-01 04:10:00,41.6,24.3,29.83,WNW,298,0.0,1.0,50,0.00,,,0.00,Wunderground v.1.15,2013-01-01 09:10:00,
2013-01-01 04:20:00,41.3,25.4,29.83,West,280,0.0,0.0,53,0.00,,,0.00,Wunderground v.1.15,2013-01-01 09:20:00,
2013-01-01 04:30:00,41.2,25.8,29.83,West,263,1.0,1.0,54,0.00,,,0.00,Wunderground v.1.15,2013-01-01 09:30:00,
2013-01-01 04:40:00,41.2,26.2,29.82,SW,236,1.0,1.0,55,0.00,,,0.00,Wunderground v.1.15,2013-01-01 09:40:00,
2013-01-01 04:45:00,41.3,26.3,29.82,NNW,329,1.0,1.0,55,0.00,,,0.00,Wunderground v.1.15,2013-01-01 09:45:00,
2013-01-01 04:55:00,41.5,27.0,29.81,West,272,1.0,1.0,56,0.00,,,0.00,Wunderground v.1.15,2013-01-01 09:55:00,
2013-01-01 05:05:00,42.1,27.5,29.81,WSW,257,1.0,1.0,56,0.00,,,0.00,Wunderground v.1.15,2013-01-01 10:05:00,
2013-01-01 05:15:00,42.1,27.5,29.82,South,175,0.0,1.0,56,0.00,,,0.00,Wunderground v.1.15,2013-01-01 10:15:00,
2013-01-01 05:20:00,41.9,27.8,29.82,NNE,18,0.0,0.0,57,0.00,,,0.00,Wunderground v.1.15,2013-01-01 10:20:00,
2013-01-01 05:30:00,41.9,28.2,29.81,West,278,1.0,1.0,58,0.00,,,0.00,Wunderground v.1.15,2013-01-01 10:30:00,
2013-01-01 05:40:00,41.8,28.1,29.82,WNW,284,1.0,1.0,58,0.00,,,0.00,Wunderground v.1.15,2013-01-01 10:40:00,
2013-01-01 05:50:00,41.6,28.3,29.82,WNW,298,1.0,2.0,59,0.00,,,0.00,Wunderground v.1.15,2013-01-01 10:50:00,
2013-01-01 06:00:00,42.3,30.2,29.82,WNW,288,2.0,2.0,62,0.00,,,0.00,Wunderground v.1.15,2013-01-01 11:00:00,
2013-01-01 06:10:00,43.1,30.1,29.82,West,263,1.0,3.0,60,0.00,,,0.00,Wunderground v.1.15,2013-01-01 11:10:00,
2013-01-01 06:20:00,43.5,30.9,29.82,West,267,2.0,2.0,61,0.00,,,0.00,Wunderground v.1.15,2013-01-01 11:20:00,
2013-01-01 06:30:00,43.3,30.3,29.83,West,272,2.0,2.0,60,0.00,,,0.00,Wunderground v.1.15,2013-01-01 11:30:00,
2013-01-01 06:35:00,43.3,30.7,29.84,West,269,1.0,2.0,61,0.00,,,0.00,Wunderground v.1.15,2013-01-01 11:35:00,
2013-01-01 06:40:00,43.3,30.7,29.84,WNW,287,1.0,2.0,61,0.00,,,0.00,Wunderground v.1.15,2013-01-01 11:40:00,
2013-01-01 06:50:00,43.5,30.9,29.84,West,268,2.0,2.0,61,0.00,,,0.00,Wunderground v.1.15,2013-01-01 11:50:00,
2013-01-01 07:00:00,43.8,32.8,29.84,West,264,2.0,2.0,65,0.00,,,0.00,Wunderground v.1.15,2013-01-01 12:00:00,
2013-01-01 07:10:00,44.2,33.9,29.86,West,263,2.0,2.0,67,0.00,,,0.00,Wunderground v.1.15,2013-01-01 12:10:00,
2013-01-01 07:20:00,44.3,34.4,29.86,West,272,2.0,2.0,68,0.00,,,0.00,Wunderground v.1.15,2013-01-01 12:20:00,
2013-01-01 07:30:00,44.3,37.2,29.87,WNW,282,2.0,2.0,76,0.00,,,0.00,Wunderground v.1.15,2013-01-01 12:30:00,
2013-01-01 07:40:00,44.3,37.5,29.87,West,272,2.0,3.0,77,0.00,,,0.00,Wunderground v.1.15,2013-01-01 12:40:00,
2013-01-01 07:50:00,44.5,37.7,29.86,West,273,1.0,1.0,77,0.00,,,0.00,Wunderground v.1.15,2013-01-01 12:50:00,
2013-01-01 08:00:00,44.8,37.7,29.86,West,267,2.0,3.0,76,0.00,,,0.00,Wunderground v.1.15,2013-01-01 13:00:00,
2013-01-01 08:10:00,45.1,38.0,29.85,West,268,1.0,3.0,76,0.00,,,0.00,Wunderground v.1.15,2013-01-01 13:10:00,
2013-01-01 08:20:00,45.1,38.6,29.86,West,271,2.0,2.0,78,0.00,,,0.01,Wunderground v.1.15,2013-01-01 13:20:00,
2013-01-01 08:30:00,44.9,39.4,29.86,West,271,2.0,2.0,81,0.00,,,0.01,Wunderground v.1.15,2013-01-01 13:30:00,
2013-01-01 08:40:00,44.6,39.8,29.86,West,275,1.0,2.0,83,0.00,,,0.02,Wunderground v.1.15,2013-01-01 13:40:00,
2013-01-01 08:45:00,44.5,39.7,29.85,West,261,1.0,2.0,83,0.00,,,0.02,Wunderground v.1.15,2013-01-01 13:45:00,
2013-01-01 08:50:00,44.5,40.0,29.85,West,269,1.0,3.0,84,0.00,,,0.02,Wunderground v.1.15,2013-01-01 13:50:00,
2013-01-01 09:00:00,44.3,40.4,29.86,West,270,1.0,1.0,86,0.05,,,0.03,Wunderground v.1.15,2013-01-01 14:00:00,
2013-01-01 09:10:00,44.3,40.7,29.85,West,270,1.0,1.0,87,0.00,,,0.03,Wunderground v.1.15,2013-01-01 14:10:00,
2013-01-01 09:20:00,44.5,41.2,29.85,West,270,0.0,0.0,88,0.00,,,0.04,Wunderground v.1.15,2013-01-01 14:20:00,
2013-01-01 09:30:00,44.6,41.6,29.86,West,270,0.0,1.0,89,0.00,,,0.04,Wunderground v.1.15,2013-01-01 14:30:00,
2013-01-01 09:40:00,44.6,41.6,29.86,West,270,0.0,1.0,89,0.00,,,0.05,Wunderground v.1.15,2013-01-01 14:40:00,
2013-01-01 09:50:00,44.8,42.0,29.86,West,270,0.0,1.0,90,0.00,,,0.05,Wunderground v.1.15,2013-01-01 14:50:00,
2013-01-01 09:55:00,44.9,42.1,29.87,West,273,1.0,1.0,90,0.00,,,0.05,Wunderground v.1.15,2013-01-01 14:55:00,
2013-01-01 10:05:00,45.5,42.7,29.86,West,260,2.0,2.0,90,0.00,,,0.06,Wunderground v.1.15,2013-01-01 15:05:00,
2013-01-01 10:15:00,45.8,43.0,29.85,WNW,290,2.0,2.0,90,0.00,,,0.06,Wunderground v.1.15,2013-01-01 15:15:00,
2013-01-01 10:20:00,46.1,43.3,29.86,West,277,3.0,3.0,90,0.00,,,0.06,Wunderground v.1.15,2013-01-01 15:20:00,
2013-01-01 10:30:00,46.1,43.3,29.85,West,277,1.0,1.0,90,0.00,,,0.06,Wunderground v.1.15,2013-01-01 15:30:00,
2013-01-01 10:40:00,46.2,43.4,29.85,West,277,1.0,1.0,90,0.00,,,0.06,Wunderground v.1.15,2013-01-01 15:40:00,
2013-01-01 10:50:00,46.2,43.4,29.84,West,276,2.0,2.0,90,0.00,,,0.06,Wunderground v.1.15,2013-01-01 15:50:00,
2013-01-01 11:00:00,46.5,43.7,29.84,West,268,1.0,1.0,90,0.00,,,0.06,Wunderground v.1.15,2013-01-01 16:00:00,
2013-01-01 11:05:00,46.7,43.9,29.84,West,275,1.0,1.0,90,0.00,,,0.06,Wunderground v.1.15,2013-01-01 16:05:00,
2013-01-01 11:15:00,46.8,43.7,29.84,West,273,1.0,2.0,89,0.00,,,0.06,Wunderground v.1.15,2013-01-01 16:15:00,
2013-01-01 11:25:00,47.0,43.9,29.83,West,273,1.0,2.0,89,0.00,,,0.06,Wunderground v.1.15,2013-01-01 16:25:00,
2013-01-01 11:35:00,47.4,44.3,29.83,WNW,290,1.0,2.0,89,0.00,,,0.06,Wunderground v.1.15,2013-01-01 16:35:00,
2013-01-01 11:40:00,47.4,44.3,29.82,WNW,290,1.0,2.0,89,0.00,,,0.06,Wunderground v.1.15,2013-01-01 16:40:00,
2013-01-01 11:50:00,47.4,44.0,29.82,West,279,1.0,2.0,88,0.00,,,0.06,Wunderground v.1.15,2013-01-01 16:50:00,
2013-01-01 12:00:00,47.4,43.7,29.82,WSW,252,1.0,1.0,87,0.00,,,0.07,Wunderground v.1.15,2013-01-01 17:00:00,
2013-01-01 12:10:00,47.3,43.9,29.81,WSW,252,0.0,2.0,88,0.00,,,0.07,Wunderground v.1.15,2013-01-01 17:10:00,
2013-01-01 12:20:00,47.1,43.7,29.80,WSW,252,1.0,1.0,88,0.00,,,0.07,Wunderground v.1.15,2013-01-01 17:20:00,
2013-01-01 12:30:00,47.1,44.0,29.80,WSW,252,1.0,1.0,89,0.00,,,0.08,Wunderground v.1.15,2013-01-01 17:30:00,
2013-01-01 12:40:00,47.0,43.9,29.80,West,274,1.0,1.0,89,0.07,,,0.09,Wunderground v.1.15,2013-01-01 17:40:00,
2013-01-01 12:45:00,46.8,43.7,29.80,West,271,1.0,1.0,89,0.08,,,0.10,Wunderground v.1.15,2013-01-01 17:45:00,
2013-01-01 12:50:00,46.8,44.0,29.80,West,271,1.0,1.0,90,0.08,,,0.11,Wunderground v.1.15,2013-01-01 17:50:00,
2013-01-01 13:00:00,46.5,44.0,29.80,West,277,1.0,1.0,91,0.09,,,0.12,Wunderground v.1.15,2013-01-01 18:00:00,
2013-01-01 13:10:00,46.4,43.9,29.79,West,276,0.0,0.0,91,0.10,,,0.14,Wunderground v.1.15,2013-01-01 18:10:00,
2013-01-01 13:20:00,46.1,43.9,29.77,West,273,0.0,0.0,92,0.14,,,0.16,Wunderground v.1.15,2013-01-01 18:20:00,
2013-01-01 13:30:00,46.1,43.9,29.77,West,273,0.0,1.0,92,0.08,,,0.17,Wunderground v.1.15,2013-01-01 18:30:00,
2013-01-01 13:40:00,46.2,44.0,29.77,West,273,0.0,0.0,92,0.09,,,0.19,Wunderground v.1.15,2013-01-01 18:40:00,
2013-01-01 13:50:00,46.2,44.3,29.76,West,273,0.0,0.0,93,0.08,,,0.20,Wunderground v.1.15,2013-01-01 18:50:00,
2013-01-01 13:55:00,46.4,44.5,29.76,West,273,0.0,0.0,93,0.06,,,0.21,Wunderground v.1.15,2013-01-01 18:55:00,
2013-01-01 14:05:00,46.4,44.5,29.75,West,273,0.0,0.0,93,0.10,,,0.22,Wunderground v.1.15,2013-01-01 19:05:00,
2013-01-01 14:15:00,46.5,44.6,29.75,West,273,0.0,2.0,93,0.06,,,0.23,Wunderground v.1.15,2013-01-01 19:15:00,
2013-01-01 14:20:00,46.5,44.6,29.75,West,273,1.0,1.0,93,0.06,,,0.23,Wunderground v.1.15,2013-01-01 19:20:00,
2013-01-01 14:30:00,46.4,44.8,29.76,West,273,0.0,1.0,94,0.06,,,0.24,Wunderground v.1.15,2013-01-01 19:30:00,
2013-01-01 14:40:00,46.4,44.5,29.75,West,273,1.0,1.0,93,0.04,,,0.25,Wunderground v.1.15,2013-01-01 19:40:00,
2013-01-01 14:50:00,46.8,45.2,29.74,West,273,0.0,0.0,94,0.04,,,0.25,Wunderground v.1.15,2013-01-01 19:50:00,
2013-01-01 15:00:00,47.1,45.2,29.73,West,273,0.0,0.0,93,0.00,,,0.25,Wunderground v.1.15,2013-01-01 20:00:00,
2013-01-01 15:10:00,47.3,45.4,29.74,West,273,0.0,0.0,93,0.00,,,0.26,Wunderground v.1.15,2013-01-01 20:10:00,
2013-01-01 15:20:00,47.3,45.4,29.74,West,273,0.0,0.0,93,0.00,,,0.26,Wunderground v.1.15,2013-01-01 20:20:00,
2013-01-01 15:30:00,47.4,45.5,29.74,West,273,0.0,0.0,93,0.00,,,0.26,Wunderground v.1.15,2013-01-01 20:30:00,
2013-01-01 15:35:00,47.3,45.4,29.74,West,273,0.0,1.0,93,0.00,,,0.26,Wunderground v.1.15,2013-01-01 20:35:00,
2013-01-01 15:45:00,47.0,44.8,29.74,ENE,63,0.0,1.0,92,0.00,,,0.27,Wunderground v.1.15,2013-01-01 20:45:00,
2013-01-01 15:50:00,47.1,44.9,29.75,ENE,63,0.0,0.0,92,0.00,,,0.27,Wunderground v.1.15,2013-01-01 20:50:00,
2013-01-01 16:00:00,47.1,44.9,29.75,WSW,257,1.0,1.0,92,0.00,,,0.27,Wunderground v.1.15,2013-01-01 21:00:00,
2013-01-01 16:10:00,47.1,45.2,29.76,WNW,291,0.0,0.0,93,0.00,,,0.27,Wunderground v.1.15,2013-01-01 21:10:00,
2013-01-01 16:20:00,47.0,45.1,29.76,SW,229,0.0,0.0,93,0.00,,,0.28,Wunderground v.1.15,2013-01-01 21:20:00,
2013-01-01 16:30:00,47.0,45.1,29.76,SW,229,0.0,0.0,93,0.00,,,0.28,Wunderground v.1.15,2013-01-01 21:30:00,
2013-01-01 16:40:00,46.8,44.9,29.76,West,270,0.0,1.0,93,0.00,,,0.28,Wunderground v.1.15,2013-01-01 21:40:00,
2013-01-01 16:50:00,46.7,45.1,29.76,West,264,0.0,0.0,94,0.00,,,0.28,Wunderground v.1.15,2013-01-01 21:50:00,
2013-01-01 16:55:00,46.5,44.9,29.76,WNW,294,1.0,1.0,94,0.00,,,0.28,Wunderground v.1.15,2013-01-01 21:55:00,
2013-01-01 17:05:00,46.5,44.9,29.75,WNW,294,0.0,0.0,94,0.00,,,0.28,Wunderground v.1.15,2013-01-01 22:05:00,
2013-01-01 17:15:00,46.4,44.8,29.74,SSE,154,0.0,1.0,94,0.00,,,0.29,Wunderground v.1.15,2013-01-01 22:15:00,
2013-01-01 17:20:00,46.2,44.6,29.74,SSE,154,0.0,0.0,94,0.00,,,0.29,Wunderground v.1.15,2013-01-01 22:20:00,
2013-01-01 17:30:00,46.1,44.5,29.73,SSE,154,0.0,0.0,94,0.00,,,0.29,Wunderground v.1.15,2013-01-01 22:30:00,
2013-01-01 17:40:00,46.0,44.6,29.74,South,170,0.0,1.0,95,0.00,,,0.29,Wunderground v.1.15,2013-01-01 22:40:00,
2013-01-01 17:50:00,46.1,44.7,29.74,West,264,0.0,1.0,95,0.00,,,0.29,Wunderground v.1.15,2013-01-01 22:50:00,
2013-01-01 18:00:00,45.8,44.4,29.72,West,264,0.0,0.0,95,0.00,,,0.30,Wunderground v.1.15,2013-01-01 23:00:00,
2013-01-01 18:10:00,45.8,44.4,29.72,West,264,0.0,0.0,95,0.00,,,0.30,Wunderground v.1.15,2013-01-01 23:10:00,
2013-01-01 18:15:00,45.8,44.4,29.72,West,264,0.0,0.0,95,0.00,,,0.30,Wunderground v.1.15,2013-01-01 23:15:00,
2013-01-01 18:25:00,45.7,44.4,29.72,West,264,0.0,0.0,95,0.00,,,0.30,Wunderground v.1.15,2013-01-01 23:25:00,
2013-01-01 18:35:00,45.7,44.4,29.73,West,264,0.0,0.0,95,0.00,,,0.30,Wunderground v.1.15,2013-01-01 23:35:00,
2013-01-01 18:45:00,45.7,44.4,29.74,West,264,0.0,0.0,95,0.00,,,0.30,Wunderground v.1.15,2013-01-01 23:45:00,
2013-01-01 18:50:00,45.8,44.4,29.75,West,264,0.0,0.0,95,0.00,,,0.31,Wunderground v.1.15,2013-01-01 23:50:00,
2013-01-01 19:00:00,45.8,44.7,29.75,West,264,0.0,0.0,96,0.00,,,0.31,Wunderground v.1.15,2013-01-02 00:00:00,
2013-01-01 19:10:00,45.8,44.7,29.74,West,264,0.0,0.0,96,0.07,,,0.33,Wunderground v.1.15,2013-01-02 00:10:00,
2013-01-01 19:20:00,45.7,44.6,29.74,West,264,0.0,0.0,96,0.05,,,0.33,Wunderground v.1.15,2013-01-02 00:20:00,
2013-01-01 19:30:00,45.4,44.3,29.73,West,264,0.0,0.0,96,0.00,,,0.34,Wunderground v.1.15,2013-01-02 00:30:00,
2013-01-01 19:35:00,45.4,44.3,29.73,West,264,0.0,0.0,96,0.00,,,0.34,Wunderground v.1.15,2013-01-02 00:35:00,
2013-01-01 19:45:00,45.7,44.6,29.75,West,264,0.0,0.0,96,0.00,,,0.34,Wunderground v.1.15,2013-01-02 00:45:00,
2013-01-01 19:50:00,45.7,44.6,29.75,West,264,0.0,0.0,96,0.00,,,0.34,Wunderground v.1.15,2013-01-02 00:50:00,
2013-01-01 20:00:00,45.7,44.6,29.74,West,264,0.0,0.0,96,0.00,,,0.34,Wunderground v.1.15,2013-01-02 01:00:00,
2013-01-01 20:10:00,45.5,44.4,29.74,West,264,0.0,0.0,96,0.00,,,0.35,Wunderground v.1.15,2013-01-02 01:10:00,
2013-01-01 20:20:00,45.5,44.4,29.73,West,264,0.0,0.0,96,0.00,,,0.35,Wunderground v.1.15,2013-01-02 01:20:00,
2013-01-01 20:30:00,45.5,44.4,29.73,West,264,0.0,0.0,96,0.00,,,0.35,Wunderground v.1.15,2013-01-02 01:30:00,
2013-01-01 20:40:00,45.5,44.4,29.71,West,264,0.0,0.0,96,0.00,,,0.35,Wunderground v.1.15,2013-01-02 01:40:00,
2013-01-01 20:50:00,45.7,44.6,29.73,West,264,0.0,0.0,96,0.00,,,0.35,Wunderground v.1.15,2013-01-02 01:50:00,
2013-01-01 20:55:00,45.7,44.6,29.73,West,264,0.0,0.0,96,0.00,,,0.35,Wunderground v.1.15,2013-01-02 01:55:00,
2013-01-01 21:05:00,45.7,44.6,29.73,West,264,0.0,0.0,96,0.00,,,0.36,Wunderground v.1.15,2013-01-02 02:05:00,
2013-01-01 21:15:00,45.5,44.4,29.73,West,264,0.0,0.0,96,0.05,,,0.37,Wunderground v.1.15,2013-01-02 02:15:00,
2013-01-01 21:20:00,45.4,44.3,29.73,West,264,0.0,0.0,96,0.05,,,0.37,Wunderground v.1.15,2013-01-02 02:20:00,
2013-01-01 21:30:00,45.4,44.3,29.72,West,264,0.0,0.0,96,0.07,,,0.38,Wunderground v.1.15,2013-01-02 02:30:00,
2013-01-01 21:40:00,45.2,44.1,29.72,West,264,0.0,0.0,96,0.04,,,0.39,Wunderground v.1.15,2013-01-02 02:40:00,
2013-01-01 21:50:00,45.4,44.3,29.72,West,264,0.0,0.0,96,0.05,,,0.40,Wunderground v.1.15,2013-01-02 02:50:00,
2013-01-01 22:00:00,45.2,44.1,29.72,West,264,0.0,0.0,96,0.08,,,0.41,Wunderground v.1.15,2013-01-02 03:00:00,
2013-01-01 22:10:00,45.5,44.4,29.70,West,264,0.0,0.0,96,0.05,,,0.41,Wunderground v.1.15,2013-01-02 03:10:00,
2013-01-01 22:15:00,45.7,44.6,29.70,West,264,0.0,0.0,96,0.04,,,0.42,Wunderground v.1.15,2013-01-02 03:15:00,
2013-01-01 22:25:00,45.5,44.4,29.71,West,264,0.0,0.0,96,0.05,,,0.43,Wunderground v.1.15,2013-01-02 03:25:00,
2013-01-01 22:30:00,45.5,44.4,29.71,West,264,0.0,0.0,96,0.05,,,0.43,Wunderground v.1.15,2013-01-02 03:30:00,
2013-01-01 22:40:00,45.7,44.6,29.71,West,264,0.0,0.0,96,0.07,,,0.44,Wunderground v.1.15,2013-01-02 03:40:00,
2013-01-01 22:50:00,45.5,44.4,29.71,West,264,0.0,0.0,96,0.04,,,0.45,Wunderground v.1.15,2013-01-02 03:50:00,
2013-01-01 23:00:00,45.4,44.3,29.70,West,264,0.0,0.0,96,0.04,,,0.46,Wunderground v.1.15,2013-01-02 04:00:00,
2013-01-01 23:10:00,45.2,44.1,29.71,West,264,0.0,0.0,96,0.04,,,0.46,Wunderground v.1.15,2013-01-02 04:10:00,
2013-01-01 23:20:00,45.2,44.1,29.71,West,264,0.0,0.0,96,0.07,,,0.48,Wunderground v.1.15,2013-01-02 04:20:00,
2013-01-01 23:30:00,45.2,44.1,29.70,West,264,0.0,0.0,96,0.06,,,0.48,Wunderground v.1.15,2013-01-02 04:30:00,
2013-01-01 23:35:00,45.2,44.1,29.70,West,264,0.0,0.0,96,0.04,,,0.48,Wunderground v.1.15,2013-01-02 04:35:00,
2013-01-01 23:45:00,45.2,44.1,29.70,West,264,0.0,0.0,96,0.00,,,0.48,Wunderground v.1.15,2013-01-02 04:45:00,
2013-01-01 23:50:00,45.2,44.1,29.70,West,264,0.0,0.0,96,0.00,,,0.49,Wunderground v.1.15,2013-01-02 04:50:00,